Time;durP1;ratioP1;P1;durP2;ratioP2;P2;SDS_P1;SDS_P2;PMS_P1;PMS_P2;Temp;Humidity;BMP_temperature;BMP_pressure;BME280_temperature;BME280_humidity;BME280_pressure;Samples;Min_cycle;Max_cycle;Signal;HPM_P1;HPM_P2
2023/03/02 00:00:46;;;;;;;9.98;4.38;;;2.90;67.60;;;;;;5094432;28;20030;-67
2023/03/02 00:03:16;;;;;;;10.70;5.10;;;2.90;67.70;;;;;;5092590;28;20067;-66
2023/03/02 00:05:46;;;;;;;8.73;4.70;;;2.80;67.90;;;;;;5091883;28;20028;-67
2023/03/02 00:08:14;;;;;;;11.23;5.10;;;2.80;68.20;;;;;;5092158;28;20031;-66
2023/03/02 00:10:40;;;;;;;14.70;6.65;;;2.80;68.50;;;;;;5090833;28;20069;-65
2023/03/02 00:13:06;;;;;;;13.95;6.78;;;2.80;68.90;;;;;;5092151;27;20543;-64
2023/03/02 00:15:31;;;;;;;17.52;8.25;;;2.70;69.00;;;;;;5096254;27;20032;-67
2023/03/02 00:17:57;;;;;;;13.93;7.05;;;2.60;69.80;;;;;;5106078;27;20118;-66
2023/03/02 00:20:23;;;;;;;16.05;7.10;;;2.60;70.20;;;;;;5097702;27;20038;-66
2023/03/02 00:22:48;;;;;;;14.07;6.55;;;2.60;70.60;;;;;;5094948;28;20024;-67
2023/03/02 00:25:16;;;;;;;13.70;6.22;;;2.60;70.60;;;;;;5099951;27;20027;-65
2023/03/02 00:27:42;;;;;;;15.73;7.40;;;2.60;70.60;;;;;;5101537;27;20111;-66
2023/03/02 00:30:09;;;;;;;16.45;6.88;;;2.60;71.00;;;;;;5099360;27;20099;-67
2023/03/02 00:32:35;;;;;;;13.65;7.05;;;2.60;71.20;;;;;;5110128;27;20413;-65
2023/03/02 00:35:00;;;;;;;13.55;6.85;;;2.60;71.40;;;;;;5095371;28;20081;-66
2023/03/02 00:37:26;;;;;;;18.55;8.70;;;2.60;72.10;;;;;;5098296;28;20226;-66
2023/03/02 00:39:52;;;;;;;15.55;7.63;;;2.60;72.20;;;;;;5094350;28;20093;-67
2023/03/02 00:42:18;;;;;;;14.82;6.78;;;2.60;72.30;;;;;;5095605;28;20094;-65
2023/03/02 00:44:44;;;;;;;17.38;6.90;;;2.70;72.40;;;;;;5100289;28;20028;-67
2023/03/02 00:47:10;;;;;;;15.73;6.35;;;2.70;72.50;;;;;;5100777;28;20397;-66
2023/03/02 00:49:35;;;;;;;21.50;8.85;;;2.70;72.60;;;;;;5100269;28;20027;-65
2023/03/02 00:52:02;;;;;;;19.15;8.73;;;2.70;73.00;;;;;;5098245;28;20023;-65
2023/03/02 00:54:28;;;;;;;17.63;8.40;;;2.70;73.10;;;;;;5100672;27;20028;-66
2023/03/02 00:56:54;;;;;;;16.15;7.38;;;2.70;73.30;;;;;;5101802;28;20505;-66
2023/03/02 00:59:25;;;;;;;17.65;6.90;;;2.70;73.60;;;;;;5102213;28;20028;-66
2023/03/02 01:01:58;;;;;;;20.10;8.07;;;2.70;73.60;;;;;;5099339;28;20701;-68
2023/03/02 01:04:33;;;;;;;17.45;8.23;;;2.70;73.80;;;;;;5103206;28;20119;-65
2023/03/02 01:07:05;;;;;;;15.95;6.07;;;2.70;74.00;;;;;;5088625;28;20262;-66
2023/03/02 01:09:31;;;;;;;14.77;6.07;;;2.70;74.40;;;;;;5091328;28;20077;-67
2023/03/02 01:11:57;;;;;;;17.63;7.43;;;2.70;74.20;;;;;;5095405;28;20425;-66
2023/03/02 01:14:23;;;;;;;18.63;6.97;;;2.80;74.20;;;;;;5107218;28;20031;-65
2023/03/02 01:16:49;;;;;;;16.63;6.75;;;2.70;74.40;;;;;;5094958;28;20047;-66
2023/03/02 01:19:15;;;;;;;17.10;8.30;;;2.80;74.40;;;;;;5088520;28;20028;-66
2023/03/02 01:21:41;;;;;;;16.33;7.55;;;2.80;74.40;;;;;;5094675;28;20016;-65
2023/03/02 01:24:08;;;;;;;19.90;8.15;;;2.80;74.50;;;;;;5103163;28;20081;-65
2023/03/02 01:26:34;;;;;;;19.52;9.38;;;2.80;75.20;;;;;;5095148;28;20024;-66
2023/03/02 01:29:00;;;;;;;16.67;7.15;;;2.80;75.10;;;;;;5091692;28;20020;-66
2023/03/02 01:31:27;;;;;;;15.90;7.25;;;2.80;75.20;;;;;;5101718;28;20029;-66
2023/03/02 01:33:53;;;;;;;18.85;7.90;;;2.80;75.10;;;;;;5094058;28;20033;-66
2023/03/02 01:36:19;;;;;;;16.95;6.90;;;2.70;75.70;;;;;;5106736;27;20032;-66
2023/03/02 01:38:45;;;;;;;14.73;6.85;;;2.80;75.50;;;;;;5112481;28;20023;-66
2023/03/02 01:41:11;;;;;;;17.70;7.60;;;2.80;75.40;;;;;;5105516;27;20504;-66
2023/03/02 01:43:37;;;;;;;15.63;6.50;;;2.80;76.10;;;;;;5097683;28;20044;-66
2023/03/02 01:46:19;;;;;;;19.75;7.68;;;2.80;75.50;;;;;;5107956;28;20031;-66
2023/03/02 01:48:48;;;;;;;18.00;6.65;;;2.80;75.60;;;;;;5095504;27;20048;-65
2023/03/02 01:51:17;;;;;;;16.25;7.28;;;2.70;75.70;;;;;;5108016;27;20054;-67
2023/03/02 01:53:45;;;;;;;13.63;5.97;;;2.70;75.70;;;;;;5113689;27;20111;-66
2023/03/02 01:56:19;;;;;;;18.95;7.82;;;2.70;75.70;;;;;;5108063;27;20035;-66
2023/03/02 01:58:50;;;;;;;14.13;6.20;;;2.60;76.00;;;;;;5094028;27;20081;-66
2023/03/02 02:01:16;;;;;;;15.80;7.20;;;2.60;76.00;;;;;;5110733;27;20023;-67
2023/03/02 02:03:48;;;;;;;16.27;6.75;;;2.60;75.90;;;;;;5099847;27;20067;-67
2023/03/02 02:06:25;;;;;;;14.65;6.78;;;2.60;76.30;;;;;;5119263;27;20034;-67
2023/03/02 02:08:53;;;;;;;12.77;5.68;;;2.60;76.30;;;;;;5108326;27;20122;-67
2023/03/02 02:11:18;;;;;;;14.48;7.07;;;2.60;76.30;;;;;;5103828;27;20073;-66
2023/03/02 02:13:44;;;;;;;14.13;6.45;;;2.60;76.60;;;;;;5112946;27;20894;-67
2023/03/02 02:16:10;;;;;;;16.13;7.20;;;2.50;76.50;;;;;;5103180;27;20023;-67
2023/03/02 02:18:38;;;;;;;12.27;5.65;;;2.60;76.60;;;;;;5111013;27;20034;-65
2023/03/02 02:21:05;;;;;;;12.80;5.10;;;2.60;76.40;;;;;;5103103;27;20034;-65
2023/03/02 02:23:45;;;;;;;14.50;6.43;;;2.60;76.50;;;;;;5101613;28;20028;-66
2023/03/02 02:26:45;;;;;;;11.32;5.57;;;2.50;76.60;;;;;;5105263;27;20028;-67
2023/03/02 02:29:33;;;;;;;13.13;5.40;;;2.50;76.60;;;;;;5076751;27;20032;-67
2023/03/02 02:32:05;;;;;;;12.45;5.60;;;2.50;76.50;;;;;;5102918;27;20435;-67
2023/03/02 02:34:43;;;;;;;14.27;5.72;;;2.50;76.30;;;;;;5103668;27;20023;-65
2023/03/02 02:37:41;;;;;;;15.00;6.60;;;2.50;76.30;;;;;;5110160;27;20036;-67
2023/03/02 02:40:20;;;;;;;18.38;7.60;;;2.50;76.50;;;;;;5100132;27;20075;-66
2023/03/02 02:42:50;;;;;;;15.23;6.95;;;2.40;76.50;;;;;;5111661;27;20114;-67
2023/03/02 02:45:25;;;;;;;14.63;6.88;;;2.40;76.60;;;;;;5104616;27;20049;-66
2023/03/02 02:47:52;;;;;;;13.48;6.03;;;2.40;76.60;;;;;;5103532;27;20032;-66
2023/03/02 02:50:24;;;;;;;12.90;5.78;;;2.40;76.40;;;;;;5119821;27;20052;-67
2023/03/02 02:53:06;;;;;;;16.02;6.55;;;2.40;76.50;;;;;;5097542;27;20020;-67
2023/03/02 02:55:33;;;;;;;14.50;6.55;;;2.30;76.40;;;;;;5109825;27;20519;-66
2023/03/02 02:58:08;;;;;;;15.63;6.72;;;2.30;76.40;;;;;;5113019;27;20059;-65
2023/03/02 03:00:33;;;;;;;18.23;7.18;;;2.30;76.50;;;;;;5095475;27;20556;-64
2023/03/02 03:03:05;;;;;;;16.40;7.15;;;2.30;76.60;;;;;;5105088;27;20038;-66
2023/03/02 03:05:31;;;;;;;15.73;7.28;;;2.20;76.70;;;;;;5098556;27;20478;-67
2023/03/02 03:08:29;;;;;;;19.60;7.78;;;2.20;76.70;;;;;;5098064;28;20053;-67
2023/03/02 03:10:55;;;;;;;13.38;5.95;;;2.20;76.90;;;;;;5097303;28;20036;-67
2023/03/02 03:13:21;;;;;;;14.63;6.60;;;2.10;76.90;;;;;;5103149;27;20019;-67
2023/03/02 03:15:47;;;;;;;14.68;6.93;;;2.10;77.00;;;;;;5107470;28;20081;-67
2023/03/02 03:18:12;;;;;;;18.73;7.47;;;2.10;77.10;;;;;;5095044;28;20028;-67
2023/03/02 03:20:40;;;;;;;17.55;7.35;;;2.10;77.40;;;;;;5103933;28;20042;-67
2023/03/02 03:23:05;;;;;;;17.25;7.20;;;2.00;78.00;;;;;;5099231;28;20028;-67
2023/03/02 03:25:33;;;;;;;17.45;7.20;;;2.00;77.30;;;;;;5107609;28;20024;-66
2023/03/02 03:27:59;;;;;;;12.88;5.63;;;2.00;77.50;;;;;;5096815;28;20027;-67
2023/03/02 03:30:24;;;;;;;12.98;6.10;;;2.00;77.60;;;;;;5089681;28;20020;-66
2023/03/02 03:32:50;;;;;;;17.90;6.15;;;1.90;77.60;;;;;;5104305;28;20024;-66
2023/03/02 03:35:16;;;;;;;17.38;7.18;;;1.90;77.70;;;;;;5116842;27;20020;-66
2023/03/02 03:37:42;;;;;;;16.23;6.85;;;1.80;78.00;;;;;;5102614;27;20057;-67
2023/03/02 03:40:09;;;;;;;14.25;6.25;;;1.80;78.10;;;;;;5094171;27;20519;-66
2023/03/02 03:42:36;;;;;;;14.15;6.45;;;1.80;78.10;;;;;;5111649;27;20095;-66
2023/03/02 03:45:02;;;;;;;11.73;5.82;;;1.80;78.20;;;;;;5112702;27;20058;-66
2023/03/02 03:47:28;;;;;;;14.00;5.30;;;1.80;78.30;;;;;;5109724;27;20019;-67
2023/03/02 03:49:54;;;;;;;13.07;5.22;;;1.80;78.20;;;;;;5104994;27;20143;-66
2023/03/02 03:52:29;;;;;;;17.42;7.80;;;1.80;78.20;;;;;;5100014;27;20453;-66
2023/03/02 03:54:58;;;;;;;15.00;6.28;;;1.80;78.30;;;;;;5114788;27;20031;-66
2023/03/02 03:57:25;;;;;;;17.25;6.35;;;1.80;78.40;;;;;;5096757;27;20023;-66
2023/03/02 03:59:51;;;;;;;20.08;7.15;;;1.80;78.50;;;;;;5112690;27;20019;-66
2023/03/02 04:02:17;;;;;;;15.65;6.38;;;1.70;78.70;;;;;;5105275;27;20084;-65
2023/03/02 04:04:44;;;;;;;13.70;6.20;;;1.70;78.70;;;;;;5114310;27;20031;-65
2023/03/02 04:07:09;;;;;;;13.75;6.05;;;1.70;78.70;;;;;;5110624;27;20516;-66
2023/03/02 04:09:36;;;;;;;16.88;6.07;;;1.80;78.70;;;;;;5108955;27;20031;-66
2023/03/02 04:12:03;;;;;;;17.23;7.07;;;1.80;78.60;;;;;;5097734;27;20016;-65
2023/03/02 04:14:29;;;;;;;20.63;7.80;;;1.80;78.60;;;;;;5097635;27;20019;-66
2023/03/02 04:16:55;;;;;;;14.85;6.10;;;1.70;78.70;;;;;;5109895;27;20530;-65
2023/03/02 04:19:21;;;;;;;16.27;6.95;;;1.70;78.90;;;;;;5094535;28;20493;-65
2023/03/02 04:21:50;;;;;;;19.05;7.38;;;1.70;79.00;;;;;;5103454;27;20024;-65
2023/03/02 04:24:18;;;;;;;17.52;7.00;;;1.70;79.10;;;;;;5116539;27;20024;-65
2023/03/02 04:26:45;;;;;;;17.48;7.40;;;1.70;79.10;;;;;;5105911;27;20046;-65
2023/03/02 04:29:11;;;;;;;17.02;7.60;;;1.60;79.20;;;;;;5098556;28;20019;-66
2023/03/02 04:31:37;;;;;;;17.10;7.28;;;1.70;79.40;;;;;;5097446;27;20525;-67
2023/03/02 04:34:04;;;;;;;16.35;7.05;;;1.70;80.00;;;;;;5092679;28;20055;-66
2023/03/02 04:36:30;;;;;;;18.75;7.55;;;1.70;79.30;;;;;;5111275;27;20036;-66
2023/03/02 04:38:56;;;;;;;15.70;6.68;;;1.60;79.40;;;;;;5117777;27;20594;-65
2023/03/02 04:41:22;;;;;;;18.27;7.45;;;1.60;79.80;;;;;;5119228;27;20130;-66
2023/03/02 04:43:47;;;;;;;19.92;7.90;;;1.60;80.10;;;;;;5116028;28;20031;-67
2023/03/02 04:46:20;;;;;;;16.23;7.15;;;1.60;80.10;;;;;;5105921;28;20027;-68
2023/03/02 04:48:46;;;;;;;19.35;7.85;;;1.60;80.60;;;;;;5100428;28;21004;-67
2023/03/02 04:51:22;;;;;;;18.15;7.72;;;1.60;80.10;;;;;;5099899;28;20020;-67
2023/03/02 04:53:49;;;;;;;15.13;6.70;;;1.60;80.00;;;;;;5111827;27;20023;-67
2023/03/02 04:56:15;;;;;;;22.15;7.55;;;1.60;79.80;;;;;;5115316;28;20019;-67
2023/03/02 04:58:40;;;;;;;18.13;7.53;;;1.60;80.30;;;;;;5100037;27;20769;-66
2023/03/02 05:01:08;;;;;;;17.90;7.38;;;1.60;80.60;;;;;;5103684;28;20039;-67
2023/03/02 05:03:33;;;;;;;18.13;7.68;;;1.60;80.40;;;;;;5102108;28;20051;-66
2023/03/02 05:06:01;;;;;;;16.70;6.88;;;1.60;80.30;;;;;;5106257;28;20064;-65
2023/03/02 05:08:26;;;;;;;13.98;6.50;;;1.60;80.20;;;;;;5105236;28;20073;-67
2023/03/02 05:10:52;;;;;;;11.80;5.47;;;1.70;80.20;;;;;;5096461;28;20065;-67
2023/03/02 05:13:17;;;;;;;15.18;6.63;;;1.60;80.10;;;;;;5096614;28;20024;-67
2023/03/02 05:15:43;;;;;;;17.98;7.97;;;1.60;80.00;;;;;;5090485;28;20074;-66
2023/03/02 05:18:10;;;;;;;16.35;7.68;;;1.60;80.00;;;;;;5097329;28;20027;-67
2023/03/02 05:20:36;;;;;;;19.23;7.03;;;1.60;80.20;;;;;;5093641;28;20058;-64
2023/03/02 05:23:06;;;;;;;17.23;6.50;;;1.50;80.20;;;;;;5095994;28;20472;-66
2023/03/02 05:25:33;;;;;;;21.45;8.43;;;1.60;80.10;;;;;;5101608;28;20046;-65
2023/03/02 05:28:00;;;;;;;17.02;7.30;;;1.40;80.60;;;;;;5093825;28;20092;-67
2023/03/02 05:30:26;;;;;;;21.48;8.45;;;1.40;80.60;;;;;;5103918;28;20012;-67
2023/03/02 05:32:52;;;;;;;15.68;6.78;;;1.40;81.20;;;;;;5096398;28;20020;-67
2023/03/02 05:35:20;;;;;;;19.88;7.40;;;1.40;81.00;;;;;;5099489;28;20020;-67
2023/03/02 05:37:46;;;;;;;18.48;6.88;;;1.40;80.90;;;;;;5115840;27;20750;-68
2023/03/02 05:40:14;;;;;;;17.65;7.13;;;1.40;80.80;;;;;;5102336;27;20035;-68
2023/03/02 05:42:41;;;;;;;20.52;7.38;;;1.40;80.90;;;;;;5104115;27;20026;-68
2023/03/02 05:45:11;;;;;;;17.40;6.80;;;1.30;81.00;;;;;;5104354;27;20038;-68
2023/03/02 05:47:37;;;;;;;20.65;8.30;;;1.30;80.90;;;;;;5109866;27;20070;-65
2023/03/02 05:50:03;;;;;;;17.38;8.00;;;1.30;81.30;;;;;;5102666;27;20055;-66
2023/03/02 05:52:28;;;;;;;18.65;7.10;;;1.30;81.20;;;;;;5101861;28;20051;-65
2023/03/02 05:54:54;;;;;;;16.02;6.20;;;1.30;81.10;;;;;;5108887;27;20042;-66
2023/03/02 05:57:19;;;;;;;17.45;7.20;;;1.30;81.00;;;;;;5097614;28;20422;-66
2023/03/02 05:59:45;;;;;;;20.45;8.25;;;1.30;81.00;;;;;;5113068;27;20524;-66
2023/03/02 06:02:11;;;;;;;21.83;8.38;;;1.20;81.10;;;;;;5105412;27;20394;-65
2023/03/02 06:04:41;;;;;;;18.02;7.63;;;1.20;81.70;;;;;;5110446;27;20031;-66
2023/03/02 06:07:10;;;;;;;20.77;7.90;;;1.20;81.50;;;;;;5114515;27;20051;-67
2023/03/02 06:09:37;;;;;;;20.85;8.15;;;1.20;81.80;;;;;;5117749;27;20019;-66
2023/03/02 06:12:04;;;;;;;18.88;7.60;;;1.20;81.80;;;;;;5093931;27;20036;-67
2023/03/02 06:14:30;;;;;;;19.15;7.05;;;1.20;81.80;;;;;;5117294;27;20028;-67
2023/03/02 06:16:55;;;;;;;18.98;7.03;;;1.10;81.50;;;;;;5106542;28;20043;-68
2023/03/02 06:19:21;;;;;;;16.48;6.85;;;1.10;81.50;;;;;;5106664;27;20027;-66
2023/03/02 06:21:46;;;;;;;14.38;5.93;;;1.10;81.50;;;;;;5104938;27;20035;-66
2023/03/02 06:24:12;;;;;;;16.70;6.68;;;1.20;81.40;;;;;;5106041;28;20125;-68
2023/03/02 06:26:37;;;;;;;17.00;6.95;;;1.10;81.30;;;;;;5109253;27;20631;-68
2023/03/02 06:29:04;;;;;;;15.15;6.03;;;1.20;81.20;;;;;;5111872;27;20031;-68
2023/03/02 06:31:30;;;;;;;15.98;6.00;;;1.20;81.10;;;;;;5116810;27;20069;-65
2023/03/02 06:33:56;;;;;;;19.40;7.03;;;1.20;81.10;;;;;;5107599;27;20384;-67
2023/03/02 06:36:22;;;;;;;15.48;6.85;;;1.20;81.10;;;;;;5105007;27;20018;-67
2023/03/02 06:38:47;;;;;;;16.83;6.93;;;1.20;81.00;;;;;;5109649;27;20031;-67
2023/03/02 06:41:14;;;;;;;17.60;6.47;;;1.20;80.90;;;;;;5108053;27;20538;-68
2023/03/02 06:43:39;;;;;;;20.75;7.95;;;1.20;80.80;;;;;;5112369;27;20019;-68
2023/03/02 06:46:05;;;;;;;20.17;7.43;;;1.20;80.70;;;;;;5119343;27;20107;-69
2023/03/02 06:48:31;;;;;;;16.30;6.50;;;1.20;80.70;;;;;;5107117;27;20019;-67
2023/03/02 06:50:56;;;;;;;13.82;5.93;;;1.20;80.60;;;;;;5103295;27;20040;-67
2023/03/02 06:53:22;;;;;;;14.00;5.30;;;1.20;80.60;;;;;;5103297;27;20117;-66
2023/03/02 06:55:48;;;;;;;16.17;6.20;;;1.30;80.60;;;;;;5106994;28;20485;-68
2023/03/02 06:58:14;;;;;;;13.20;5.45;;;1.30;80.50;;;;;;5100124;27;20031;-68
2023/03/02 07:00:39;;;;;;;13.80;5.50;;;1.30;80.40;;;;;;5110106;27;20031;-67
2023/03/02 07:03:05;;;;;;;16.55;5.45;;;1.40;80.30;;;;;;5105649;28;20489;-66
2023/03/02 07:05:31;;;;;;;17.70;6.35;;;1.40;80.20;;;;;;5109532;28;20024;-66
2023/03/02 07:07:58;;;;;;;15.98;6.55;;;1.40;80.00;;;;;;5097909;28;20088;-66
2023/03/02 07:10:23;;;;;;;15.35;6.60;;;1.50;80.00;;;;;;5108403;27;20046;-66
2023/03/02 07:12:49;;;;;;;17.67;7.35;;;1.60;79.90;;;;;;5096169;27;20024;-66
2023/03/02 07:15:15;;;;;;;12.90;6.25;;;1.60;79.90;;;;;;5103869;28;20024;-66
2023/03/02 07:17:42;;;;;;;15.35;6.57;;;1.60;79.80;;;;;;5113320;27;20023;-65
2023/03/02 07:20:09;;;;;;;14.15;5.70;;;1.70;79.80;;;;;;5115155;27;20568;-66
2023/03/02 07:22:35;;;;;;;18.50;7.03;;;1.70;79.60;;;;;;5102564;27;20023;-66
2023/03/02 07:25:00;;;;;;;18.13;6.90;;;1.80;79.40;;;;;;5101002;27;20024;-66
2023/03/02 07:27:26;;;;;;;19.25;7.22;;;1.80;79.30;;;;;;5102965;27;20488;-67
2023/03/02 07:29:52;;;;;;;17.02;6.57;;;1.80;79.30;;;;;;5099752;27;20039;-66
2023/03/02 07:32:17;;;;;;;17.45;7.03;;;1.90;79.60;;;;;;5100127;27;20072;-66
2023/03/02 07:34:43;;;;;;;13.63;6.32;;;1.90;79.80;;;;;;5101933;27;20039;-66
2023/03/02 07:37:09;;;;;;;15.60;5.95;;;2.00;79.60;;;;;;5101373;27;20031;-66
2023/03/02 07:39:34;;;;;;;17.17;6.10;;;2.10;79.40;;;;;;5103115;27;20125;-66
2023/03/02 07:42:03;;;;;;;16.02;6.07;;;2.10;79.60;;;;;;5103476;27;20512;-66
2023/03/02 07:44:30;;;;;;;15.65;6.25;;;2.10;79.40;;;;;;5102020;27;20420;-66
2023/03/02 07:46:56;;;;;;;15.93;6.55;;;2.20;79.20;;;;;;5105483;27;20027;-66
2023/03/02 07:49:21;;;;;;;17.13;7.40;;;2.30;79.10;;;;;;5103008;27;20027;-66
2023/03/02 07:51:47;;;;;;;17.38;7.65;;;2.30;78.80;;;;;;5104202;27;20027;-67
2023/03/02 07:54:12;;;;;;;16.90;6.95;;;2.30;78.70;;;;;;5101890;28;20051;-67
2023/03/02 07:56:39;;;;;;;14.38;6.15;;;2.30;78.60;;;;;;5098358;28;20032;-66
2023/03/02 07:59:05;;;;;;;21.30;7.00;;;2.30;78.60;;;;;;5101657;28;20035;-66
2023/03/02 08:01:30;;;;;;;21.27;7.38;;;2.30;78.60;;;;;;5097920;28;20024;-67
2023/03/02 08:03:56;;;;;;;12.48;5.68;;;2.30;78.70;;;;;;5099868;28;20020;-66
2023/03/02 08:06:22;;;;;;;18.58;7.43;;;2.40;78.70;;;;;;5101180;28;20020;-66
2023/03/02 08:08:48;;;;;;;16.40;6.47;;;2.40;79.10;;;;;;5097820;28;20026;-66
2023/03/02 08:11:16;;;;;;;14.73;6.18;;;2.40;78.90;;;;;;5103147;28;20023;-66
2023/03/02 08:13:43;;;;;;;15.23;5.57;;;2.50;78.80;;;;;;5098276;28;20181;-66
2023/03/02 08:16:10;;;;;;;14.25;6.13;;;2.60;78.70;;;;;;5099715;27;20634;-66
2023/03/02 08:18:37;;;;;;;14.00;5.45;;;2.60;78.50;;;;;;5097117;27;20055;-66
2023/03/02 08:21:04;;;;;;;12.98;4.55;;;2.70;78.40;;;;;;5101826;28;20061;-66
2023/03/02 08:23:29;;;;;;;14.07;5.85;;;2.80;79.20;;;;;;5105837;28;20026;-67
2023/03/02 08:25:55;;;;;;;10.63;4.20;;;2.80;78.40;;;;;;5103839;27;20490;-66
2023/03/02 08:28:22;;;;;;;12.88;5.10;;;3.00;78.20;;;;;;5103762;27;20035;-66
2023/03/02 08:30:55;;;;;;;13.55;5.50;;;3.00;78.10;;;;;;5096053;28;20043;-66
2023/03/02 08:33:22;;;;;;;12.32;4.85;;;3.10;78.00;;;;;;5094757;28;20490;-66
2023/03/02 08:35:56;;;;;;;11.15;3.95;;;3.10;77.80;;;;;;5102012;28;20032;-66
2023/03/02 08:38:22;;;;;;;14.43;5.10;;;3.20;77.70;;;;;;5101288;28;20115;-66
2023/03/02 08:40:50;;;;;;;11.88;5.20;;;3.30;77.80;;;;;;5095451;27;20047;-66
2023/03/02 08:43:16;;;;;;;15.57;6.45;;;3.30;77.80;;;;;;5093061;28;21640;-66
2023/03/02 08:45:41;;;;;;;13.95;6.35;;;3.40;77.90;;;;;;5101644;28;20023;-66
2023/03/02 08:48:07;;;;;;;12.45;5.25;;;3.50;77.70;;;;;;5100187;28;20517;-66
2023/03/02 08:50:33;;;;;;;13.20;4.53;;;3.50;77.50;;;;;;5098239;28;20032;-66
2023/03/02 08:52:58;;;;;;;13.38;5.32;;;3.60;77.40;;;;;;5100779;28;20024;-66
2023/03/02 08:55:24;;;;;;;15.10;6.00;;;3.60;77.20;;;;;;5102392;28;20181;-66
2023/03/02 08:57:50;;;;;;;15.35;6.10;;;3.70;77.30;;;;;;5099018;28;20042;-66
2023/03/02 09:00:17;;;;;;;14.32;5.38;;;3.60;77.20;;;;;;5105014;27;20027;-66
2023/03/02 09:02:43;;;;;;;13.73;5.68;;;3.70;77.20;;;;;;5100546;28;20040;-67
2023/03/02 09:05:09;;;;;;;13.63;6.03;;;3.70;77.20;;;;;;5101929;27;20066;-66
2023/03/02 09:07:34;;;;;;;13.23;5.13;;;3.80;77.20;;;;;;5098543;27;20107;-67
2023/03/02 09:10:00;;;;;;;13.57;5.35;;;3.80;77.00;;;;;;5104336;27;20144;-66
2023/03/02 09:12:25;;;;;;;15.70;5.28;;;3.80;76.90;;;;;;5107692;27;20036;-66
2023/03/02 09:14:58;;;;;;;15.07;5.80;;;3.90;77.60;;;;;;5102775;27;20378;-67
2023/03/02 09:17:24;;;;;;;15.45;6.18;;;3.90;76.80;;;;;;5104008;27;20127;-66
2023/03/02 09:19:50;;;;;;;18.00;6.93;;;3.90;76.80;;;;;;5103986;28;20131;-66
2023/03/02 09:22:15;;;;;;;18.25;7.05;;;3.90;77.00;;;;;;5110283;27;20039;-66
2023/03/02 09:24:41;;;;;;;18.63;6.50;;;3.90;77.20;;;;;;5109642;28;20069;-66
2023/03/02 09:27:06;;;;;;;10.38;4.35;;;4.00;77.10;;;;;;5108630;28;20034;-66
2023/03/02 09:29:32;;;;;;;11.10;4.65;;;4.10;76.90;;;;;;5109140;27;20020;-66
2023/03/02 09:31:57;;;;;;;14.40;5.75;;;4.10;76.70;;;;;;5107828;28;20576;-66
2023/03/02 09:34:23;;;;;;;14.77;5.85;;;4.20;76.40;;;;;;5105166;28;20055;-66
2023/03/02 09:36:49;;;;;;;15.95;6.25;;;4.20;76.50;;;;;;5113286;27;20055;-66
2023/03/02 09:39:14;;;;;;;19.70;7.90;;;4.20;76.60;;;;;;5108706;28;20439;-66
2023/03/02 09:41:49;;;;;;;16.65;6.25;;;4.10;76.70;;;;;;5108926;28;20452;-67
2023/03/02 09:44:33;;;;;;;17.92;6.93;;;4.10;77.00;;;;;;5105844;27;20023;-66
2023/03/02 09:47:02;;;;;;;19.88;6.95;;;4.10;77.30;;;;;;5110081;28;20034;-66
2023/03/02 09:49:52;;;;;;;17.95;6.95;;;4.20;77.30;;;;;;5108858;28;20701;-66
2023/03/02 09:52:18;;;;;;;12.13;5.00;;;4.20;77.30;;;;;;5108737;27;20024;-66
2023/03/02 09:54:44;;;;;;;11.68;5.00;;;4.30;76.90;;;;;;5107447;27;20023;-66
2023/03/02 09:57:33;;;;;;;17.17;6.53;;;4.50;76.70;;;;;;5101112;28;20053;-66
2023/03/02 10:00:04;;;;;;;15.73;6.53;;;4.50;76.50;;;;;;5104612;28;20042;-66
2023/03/02 10:02:57;;;;;;;20.83;7.40;;;4.50;76.60;;;;;;5105083;28;20030;-66
2023/03/02 10:05:39;;;;;;;13.77;5.82;;;4.60;76.70;;;;;;5100844;28;20047;-66
2023/03/02 10:08:10;;;;;;;;;;;4.70;76.70;;;;;;5110475;27;20036;-66
2023/03/02 10:10:43;;;;;;;14.93;5.70;;;4.80;76.50;;;;;;5106657;27;19986;-66
2023/03/02 10:13:21;;;;;;;17.48;7.03;;;4.90;75.60;;;;;;5106335;27;20710;-66
2023/03/02 10:15:54;;;;;;;15.20;5.28;;;5.00;75.50;;;;;;5107354;28;20023;-66
2023/03/02 10:18:27;;;;;;;15.40;5.65;;;5.10;74.90;;;;;;5105128;28;20028;-67
2023/03/02 10:21:08;;;;;;;10.95;4.78;;;5.20;74.40;;;;;;5109957;27;20457;-66
2023/03/02 10:24:00;;;;;;;10.52;5.07;;;5.30;74.50;;;;;;5102741;28;20035;-66
2023/03/02 10:26:41;;;;;;;13.05;5.30;;;5.40;74.30;;;;;;5105244;27;20043;-66
2023/03/02 10:29:25;;;;;;;12.50;5.07;;;5.40;73.60;;;;;;5105015;28;20036;-66
2023/03/02 10:32:19;;;;;;;11.60;4.70;;;5.50;73.70;;;;;;5107677;28;20402;-66
2023/03/02 10:34:46;;;;;;;14.27;4.88;;;5.70;73.60;;;;;;5097853;28;20034;-66
2023/03/02 10:37:15;;;;;;;10.82;4.45;;;5.80;73.30;;;;;;5111650;27;20073;-66
2023/03/02 10:39:41;;;;;;;12.63;5.53;;;5.90;72.80;;;;;;5112072;27;20474;-66
2023/03/02 10:42:31;;;;;;;11.07;4.90;;;5.90;73.00;;;;;;5110106;27;20115;-66
2023/03/02 10:45:07;;;;;;;13.10;5.45;;;6.00;72.90;;;;;;5111956;27;20028;-66
2023/03/02 10:47:32;;;;;;;11.50;4.68;;;6.00;72.50;;;;;;5108232;27;20030;-66
2023/03/02 10:49:58;;;;;;;14.20;5.55;;;6.10;72.50;;;;;;5104649;28;20106;-67
2023/03/02 10:52:26;;;;;;;12.40;5.40;;;6.30;72.30;;;;;;5107988;28;20051;-66
2023/03/02 10:55:11;;;;;;;11.43;5.00;;;6.20;71.90;;;;;;5105612;27;20424;-66
2023/03/02 10:57:42;;;;;;;14.05;5.50;;;6.30;71.90;;;;;;5101100;28;20474;-66
2023/03/02 11:00:21;;;;;;;16.92;6.32;;;6.40;71.60;;;;;;5107667;27;20027;-66
2023/03/02 11:03:01;;;;;;;11.43;5.18;;;6.40;70.10;;;;;;5104169;28;20242;-66
2023/03/02 11:05:33;;;;;;;14.10;4.78;;;6.50;70.80;;;;;;5107546;28;20019;-66
2023/03/02 11:08:08;;;;;;;;;;;6.60;70.80;;;;;;5105236;27;20035;-66
2023/03/02 11:10:35;;;;;;;14.13;5.53;;;6.70;70.70;;;;;;5108186;27;19961;-66
2023/03/02 11:13:14;;;;;;;14.80;6.13;;;6.70;70.40;;;;;;5104825;27;20145;-66
2023/03/02 11:15:46;;;;;;;10.90;4.47;;;6.80;70.00;;;;;;5102390;27;20020;-66
2023/03/02 11:18:30;;;;;;;12.77;5.05;;;6.80;70.40;;;;;;5100783;27;20035;-65
2023/03/02 11:21:13;;;;;;;10.63;4.68;;;6.90;70.40;;;;;;5102362;28;20040;-65
2023/03/02 11:24:02;;;;;;;13.38;5.38;;;7.00;70.20;;;;;;5117464;27;20209;-65
2023/03/02 11:26:34;;;;;;;10.95;4.75;;;7.10;70.30;;;;;;5103461;27;21168;-66
2023/03/02 11:29:11;;;;;;;10.05;4.03;;;7.20;69.30;;;;;;5107151;27;20457;-65
2023/03/02 11:31:50;;;;;;;10.85;4.07;;;7.30;69.80;;;;;;5105241;28;20047;-65
2023/03/02 11:34:23;;;;;;;12.50;5.13;;;7.40;69.70;;;;;;5100120;27;20027;-65
2023/03/02 11:36:57;;;;;;;12.77;5.00;;;7.40;68.00;;;;;;5099094;27;20164;-65
2023/03/02 11:39:40;;;;;;;10.18;4.35;;;7.40;69.00;;;;;;5102718;27;20031;-65
2023/03/02 11:42:22;;;;;;;13.82;5.85;;;7.50;69.10;;;;;;5099550;27;20060;-65
2023/03/02 11:44:48;;;;;;;11.93;5.07;;;7.50;68.20;;;;;;5101151;27;20105;-66
2023/03/02 11:47:14;;;;;;;10.75;4.95;;;7.60;68.10;;;;;;5099107;28;20039;-65
2023/03/02 11:49:46;;;;;;;10.45;5.35;;;7.70;68.70;;;;;;5099724;28;20015;-65
2023/03/02 11:52:25;;;;;;;11.18;4.78;;;7.70;67.60;;;;;;5099544;27;20020;-66
2023/03/02 11:54:57;;;;;;;10.63;4.90;;;7.90;68.40;;;;;;5098950;27;20031;-65
2023/03/02 11:57:35;;;;;;;10.95;4.68;;;7.90;68.20;;;;;;5096705;27;20486;-65
2023/03/02 12:00:05;;;;;;;13.10;5.03;;;8.00;67.70;;;;;;5096456;27;20490;-65
2023/03/02 12:02:31;;;;;;;10.85;5.22;;;8.00;67.30;;;;;;5103679;27;20020;-65
2023/03/02 12:05:07;;;;;;;11.88;4.82;;;8.00;66.60;;;;;;5103928;27;20061;-65
2023/03/02 12:07:32;;;;;;;10.23;4.03;;;8.10;67.50;;;;;;5100759;28;20503;-65
2023/03/02 12:10:07;;;;;;;8.25;4.20;;;8.20;67.60;;;;;;5101961;27;20034;-65
2023/03/02 12:12:43;;;;;;;15.60;5.65;;;8.40;67.40;;;;;;5099215;28;20028;-66
2023/03/02 12:15:36;;;;;;;12.57;5.55;;;8.40;66.60;;;;;;5101444;27;20068;-66
2023/03/02 12:18:14;;;;;;;12.07;4.75;;;8.30;65.60;;;;;;5095489;28;20028;-66
2023/03/02 12:20:41;;;;;;;9.80;4.18;;;8.40;66.40;;;;;;5096454;28;20035;-67
2023/03/02 12:23:19;;;;;;;11.35;5.55;;;8.60;65.50;;;;;;5097291;28;20671;-66
2023/03/02 12:25:50;;;;;;;12.00;5.38;;;8.50;65.20;;;;;;5097562;28;20078;-66
2023/03/02 12:28:31;;;;;;;13.52;5.82;;;8.50;64.80;;;;;;5097876;28;20028;-66
2023/03/02 12:31:12;;;;;;;14.30;5.50;;;8.40;64.40;;;;;;5100998;28;20043;-66
2023/03/02 12:33:50;;;;;;;10.68;4.80;;;8.40;64.30;;;;;;5097554;28;20019;-66
2023/03/02 12:36:26;;;;;;;11.00;5.28;;;8.60;64.10;;;;;;5099389;28;20031;-66
2023/03/02 12:38:59;;;;;;;8.15;3.67;;;8.80;65.00;;;;;;5097861;28;20118;-66
2023/03/02 12:41:39;;;;;;;9.32;4.30;;;9.10;64.90;;;;;;5097642;28;20660;-66
2023/03/02 12:44:19;;;;;;;10.40;4.80;;;9.30;64.80;;;;;;5099454;28;20027;-67
2023/03/02 12:46:47;;;;;;;10.23;4.30;;;9.40;63.20;;;;;;5096602;28;20111;-67
2023/03/02 12:49:31;;;;;;;7.57;3.95;;;9.40;63.90;;;;;;5098985;28;20054;-66
2023/03/02 12:51:59;;;;;;;7.75;3.67;;;9.50;64.40;;;;;;5100445;28;20070;-66
2023/03/02 12:54:30;;;;;;;9.15;3.72;;;9.70;64.50;;;;;;5095735;28;20464;-66
2023/03/02 12:57:21;;;;;;;11.15;4.47;;;9.80;63.90;;;;;;5096513;28;20016;-66
2023/03/02 12:59:56;;;;;;;11.55;4.43;;;9.80;63.90;;;;;;5095800;28;20038;-66